sensor_id;sensor_type;location;lat;lon;timestamp;temperature;humidity
24035;DHT22;12242;50.952;4.678;2022-08-23T00:02:01;21.50;99.90
24035;DHT22;12242;50.952;4.678;2022-08-23T00:04:42;21.50;99.90
24035;DHT22;12242;50.952;4.678;2022-08-23T00:07:29;21.50;99.90
24035;DHT22;12242;50.952;4.678;2022-08-23T00:10:02;21.50;99.90
24035;DHT22;12242;50.952;4.678;2022-08-23T00:12:30;21.50;99.90
24035;DHT22;12242;50.952;4.678;2022-08-23T00:15:00;21.50;99.90
24035;DHT22;12242;50.952;4.678;2022-08-23T00:17:27;21.50;99.90
24035;DHT22;12242;50.952;4.678;2022-08-23T00:20:05;21.50;99.90
24035;DHT22;12242;50.952;4.678;2022-08-23T00:22:34;21.50;99.90
24035;DHT22;12242;50.952;4.678;2022-08-23T00:25:06;21.50;99.90
24035;DHT22;12242;50.952;4.678;2022-08-23T00:27:36;21.50;99.90
24035;DHT22;12242;50.952;4.678;2022-08-23T00:30:07;21.40;99.90
24035;DHT22;12242;50.952;4.678;2022-08-23T00:32:38;21.40;99.90
24035;DHT22;12242;50.952;4.678;2022-08-23T00:35:08;21.50;99.90
24035;DHT22;12242;50.952;4.678;2022-08-23T00:37:36;21.40;99.90
24035;DHT22;12242;50.952;4.678;2022-08-23T00:40:09;21.50;99.90
24035;DHT22;12242;50.952;4.678;2022-08-23T00:45:43;21.50;99.90
24035;DHT22;12242;50.952;4.678;2022-08-23T00:48:31;21.60;99.90
24035;DHT22;12242;50.952;4.678;2022-08-23T00:51:11;21.60;99.90
24035;DHT22;12242;50.952;4.678;2022-08-23T00:53:51;21.60;99.90
24035;DHT22;12242;50.952;4.678;2022-08-23T00:56:21;21.50;99.90
24035;DHT22;12242;50.952;4.678;2022-08-23T00:58:49;21.60;99.90
24035;DHT22;12242;50.952;4.678;2022-08-23T01:01:17;21.60;99.90
24035;DHT22;12242;50.952;4.678;2022-08-23T01:03:50;21.60;99.90
24035;DHT22;12242;50.952;4.678;2022-08-23T01:06:32;21.60;99.90
24035;DHT22;12242;50.952;4.678;2022-08-23T01:09:08;21.50;99.90
24035;DHT22;12242;50.952;4.678;2022-08-23T01:12:04;21.50;99.90
24035;DHT22;12242;50.952;4.678;2022-08-23T01:14:39;21.50;99.90
24035;DHT22;12242;50.952;4.678;2022-08-23T01:17:39;21.40;99.90
24035;DHT22;12242;50.952;4.678;2022-08-23T01:20:13;21.40;99.90
24035;DHT22;12242;50.952;4.678;2022-08-23T01:22:55;21.40;99.90
24035;DHT22;12242;50.952;4.678;2022-08-23T01:25:26;21.40;99.90
24035;DHT22;12242;50.952;4.678;2022-08-23T01:27:55;21.30;99.90
24035;DHT22;12242;50.952;4.678;2022-08-23T01:30:26;21.30;99.90
24035;DHT22;12242;50.952;4.678;2022-08-23T01:32:59;21.30;99.90
24035;DHT22;12242;50.952;4.678;2022-08-23T01:35:40;21.20;99.90
24035;DHT22;12242;50.952;4.678;2022-08-23T01:38:10;21.20;99.90
24035;DHT22;12242;50.952;4.678;2022-08-23T01:40:40;21.20;99.90
24035;DHT22;12242;50.952;4.678;2022-08-23T01:43:08;21.20;99.90
24035;DHT22;12242;50.952;4.678;2022-08-23T01:45:40;21.30;99.90
24035;DHT22;12242;50.952;4.678;2022-08-23T01:48:07;21.30;99.90
24035;DHT22;12242;50.952;4.678;2022-08-23T01:50:37;21.30;99.90
24035;DHT22;12242;50.952;4.678;2022-08-23T01:53:06;21.30;99.90
24035;DHT22;12242;50.952;4.678;2022-08-23T01:55:34;21.30;99.90
24035;DHT22;12242;50.952;4.678;2022-08-23T01:58:04;21.30;99.90
24035;DHT22;12242;50.952;4.678;2022-08-23T02:00:34;21.20;99.90
24035;DHT22;12242;50.952;4.678;2022-08-23T02:03:05;21.20;99.90
24035;DHT22;12242;50.952;4.678;2022-08-23T02:05:35;21.10;99.90
24035;DHT22;12242;50.952;4.678;2022-08-23T02:08:04;21.10;99.90
24035;DHT22;12242;50.952;4.678;2022-08-23T02:10:50;21.10;99.90
24035;DHT22;12242;50.952;4.678;2022-08-23T02:13:18;21.10;99.90
24035;DHT22;12242;50.952;4.678;2022-08-23T02:15:46;21.20;99.90
24035;DHT22;12242;50.952;4.678;2022-08-23T02:18:20;21.20;99.90
24035;DHT22;12242;50.952;4.678;2022-08-23T02:20:49;21.10;99.90
24035;DHT22;12242;50.952;4.678;2022-08-23T02:23:22;21.10;99.90
24035;DHT22;12242;50.952;4.678;2022-08-23T02:25:50;21.10;99.90
24035;DHT22;12242;50.952;4.678;2022-08-23T02:28:22;21.10;99.90
24035;DHT22;12242;50.952;4.678;2022-08-23T02:30:50;21.10;99.90
24035;DHT22;12242;50.952;4.678;2022-08-23T02:33:20;21.10;99.90
24035;DHT22;12242;50.952;4.678;2022-08-23T02:35:50;21.10;99.90
24035;DHT22;12242;50.952;4.678;2022-08-23T02:38:17;21.10;99.90
24035;DHT22;12242;50.952;4.678;2022-08-23T02:40:45;21.00;99.90
24035;DHT22;12242;50.952;4.678;2022-08-23T02:43:19;20.90;99.90
24035;DHT22;12242;50.952;4.678;2022-08-23T02:45:46;20.90;99.90
24035;DHT22;12242;50.952;4.678;2022-08-23T02:48:16;20.80;99.90
24035;DHT22;12242;50.952;4.678;2022-08-23T02:50:43;20.80;99.90
24035;DHT22;12242;50.952;4.678;2022-08-23T02:53:13;20.90;99.90
24035;DHT22;12242;50.952;4.678;2022-08-23T02:55:46;20.80;99.90
24035;DHT22;12242;50.952;4.678;2022-08-23T02:58:13;20.70;99.90
24035;DHT22;12242;50.952;4.678;2022-08-23T03:00:48;20.70;99.90
24035;DHT22;12242;50.952;4.678;2022-08-23T03:03:16;20.70;99.90
24035;DHT22;12242;50.952;4.678;2022-08-23T03:05:44;20.70;99.90
24035;DHT22;12242;50.952;4.678;2022-08-23T03:08:12;20.70;99.90
24035;DHT22;12242;50.952;4.678;2022-08-23T03:10:47;20.70;99.90
24035;DHT22;12242;50.952;4.678;2022-08-23T03:13:18;20.70;99.90
24035;DHT22;12242;50.952;4.678;2022-08-23T03:15:46;20.70;99.90
24035;DHT22;12242;50.952;4.678;2022-08-23T03:18:14;20.70;99.90
24035;DHT22;12242;50.952;4.678;2022-08-23T03:20:41;20.60;99.90
24035;DHT22;12242;50.952;4.678;2022-08-23T03:23:10;20.50;99.90
24035;DHT22;12242;50.952;4.678;2022-08-23T03:25:38;20.50;99.90
24035;DHT22;12242;50.952;4.678;2022-08-23T03:28:06;20.40;99.90
24035;DHT22;12242;50.952;4.678;2022-08-23T03:30:34;20.40;99.90
24035;DHT22;12242;50.952;4.678;2022-08-23T03:33:04;20.40;99.90
24035;DHT22;12242;50.952;4.678;2022-08-23T03:35:32;20.40;99.90
24035;DHT22;12242;50.952;4.678;2022-08-23T03:38:01;20.30;99.90
24035;DHT22;12242;50.952;4.678;2022-08-23T03:40:34;20.30;99.90
24035;DHT22;12242;50.952;4.678;2022-08-23T03:43:02;20.20;99.90
24035;DHT22;12242;50.952;4.678;2022-08-23T03:45:29;20.30;99.90
24035;DHT22;12242;50.952;4.678;2022-08-23T03:47:57;20.30;99.90
24035;DHT22;12242;50.952;4.678;2022-08-23T03:50:25;20.30;99.90
24035;DHT22;12242;50.952;4.678;2022-08-23T03:52:52;20.40;99.90
24035;DHT22;12242;50.952;4.678;2022-08-23T03:55:20;20.40;99.90
24035;DHT22;12242;50.952;4.678;2022-08-23T03:57:47;20.40;99.90
24035;DHT22;12242;50.952;4.678;2022-08-23T04:00:15;20.20;99.90
24035;DHT22;12242;50.952;4.678;2022-08-23T04:02:46;20.20;99.90
24035;DHT22;12242;50.952;4.678;2022-08-23T04:05:14;20.20;99.90
24035;DHT22;12242;50.952;4.678;2022-08-23T04:07:44;20.20;99.90
24035;DHT22;12242;50.952;4.678;2022-08-23T04:10:11;20.10;99.90
24035;DHT22;12242;50.952;4.678;2022-08-23T04:12:41;20.20;99.90
24035;DHT22;12242;50.952;4.678;2022-08-23T04:15:09;20.00;99.90
24035;DHT22;12242;50.952;4.678;2022-08-23T04:17:38;20.00;99.90
24035;DHT22;12242;50.952;4.678;2022-08-23T04:20:07;19.90;99.90
24035;DHT22;12242;50.952;4.678;2022-08-23T04:22:34;19.90;99.90
24035;DHT22;12242;50.952;4.678;2022-08-23T04:25:04;20.00;99.90
24035;DHT22;12242;50.952;4.678;2022-08-23T04:27:52;20.00;99.90
24035;DHT22;12242;50.952;4.678;2022-08-23T04:30:19;19.90;99.90
24035;DHT22;12242;50.952;4.678;2022-08-23T04:32:47;19.90;99.90
24035;DHT22;12242;50.952;4.678;2022-08-23T04:35:15;19.90;99.90
24035;DHT22;12242;50.952;4.678;2022-08-23T04:37:45;19.90;99.90
24035;DHT22;12242;50.952;4.678;2022-08-23T04:40:15;20.00;99.90
24035;DHT22;12242;50.952;4.678;2022-08-23T04:43:02;20.00;99.90
24035;DHT22;12242;50.952;4.678;2022-08-23T04:45:29;20.10;99.90
24035;DHT22;12242;50.952;4.678;2022-08-23T04:47:58;20.10;99.90
24035;DHT22;12242;50.952;4.678;2022-08-23T04:50:26;20.10;99.90
24035;DHT22;12242;50.952;4.678;2022-08-23T04:52:53;20.20;99.90
24035;DHT22;12242;50.952;4.678;2022-08-23T04:55:21;20.20;99.90
24035;DHT22;12242;50.952;4.678;2022-08-23T04:57:48;20.20;99.90
24035;DHT22;12242;50.952;4.678;2022-08-23T05:00:20;20.30;99.90
24035;DHT22;12242;50.952;4.678;2022-08-23T05:02:53;20.30;99.90
24035;DHT22;12242;50.952;4.678;2022-08-23T05:05:21;20.30;99.90
24035;DHT22;12242;50.952;4.678;2022-08-23T05:07:49;20.30;99.90
24035;DHT22;12242;50.952;4.678;2022-08-23T05:10:20;20.30;99.90
24035;DHT22;12242;50.952;4.678;2022-08-23T05:12:49;20.30;99.90
24035;DHT22;12242;50.952;4.678;2022-08-23T05:15:16;20.30;99.90
24035;DHT22;12242;50.952;4.678;2022-08-23T05:17:44;20.30;99.90
24035;DHT22;12242;50.952;4.678;2022-08-23T05:20:11;20.20;99.90
24035;DHT22;12242;50.952;4.678;2022-08-23T05:22:40;20.40;99.90
24035;DHT22;12242;50.952;4.678;2022-08-23T05:25:08;20.40;99.90
24035;DHT22;12242;50.952;4.678;2022-08-23T05:27:40;20.40;99.90
24035;DHT22;12242;50.952;4.678;2022-08-23T05:30:12;20.30;99.90
24035;DHT22;12242;50.952;4.678;2022-08-23T05:32:41;20.30;99.90
24035;DHT22;12242;50.952;4.678;2022-08-23T05:35:09;20.30;99.90
24035;DHT22;12242;50.952;4.678;2022-08-23T05:37:38;20.30;99.90
24035;DHT22;12242;50.952;4.678;2022-08-23T05:40:06;20.30;99.90
24035;DHT22;12242;50.952;4.678;2022-08-23T05:42:37;20.30;99.90
24035;DHT22;12242;50.952;4.678;2022-08-23T05:45:08;20.30;99.90
24035;DHT22;12242;50.952;4.678;2022-08-23T05:47:36;20.30;99.90
24035;DHT22;12242;50.952;4.678;2022-08-23T05:50:09;20.30;99.90
24035;DHT22;12242;50.952;4.678;2022-08-23T05:52:37;20.30;99.90
24035;DHT22;12242;50.952;4.678;2022-08-23T05:55:07;20.30;99.90
24035;DHT22;12242;50.952;4.678;2022-08-23T05:57:36;20.40;99.90
24035;DHT22;12242;50.952;4.678;2022-08-23T06:00:06;20.50;99.90
24035;DHT22;12242;50.952;4.678;2022-08-23T06:02:36;20.60;99.90
24035;DHT22;12242;50.952;4.678;2022-08-23T06:05:04;20.70;99.90
24035;DHT22;12242;50.952;4.678;2022-08-23T06:07:36;20.80;99.90
24035;DHT22;12242;50.952;4.678;2022-08-23T06:10:05;21.00;99.90
24035;DHT22;12242;50.952;4.678;2022-08-23T06:12:32;21.20;99.90
24035;DHT22;12242;50.952;4.678;2022-08-23T06:15:00;21.50;99.90
24035;DHT22;12242;50.952;4.678;2022-08-23T06:17:31;21.70;99.90
24035;DHT22;12242;50.952;4.678;2022-08-23T06:19:58;22.10;99.90
24035;DHT22;12242;50.952;4.678;2022-08-23T06:22:26;22.30;99.90
24035;DHT22;12242;50.952;4.678;2022-08-23T06:24:53;22.60;99.90
24035;DHT22;12242;50.952;4.678;2022-08-23T06:27:21;22.90;99.90
24035;DHT22;12242;50.952;4.678;2022-08-23T06:29:49;23.20;99.90
24035;DHT22;12242;50.952;4.678;2022-08-23T06:32:17;23.50;99.90
24035;DHT22;12242;50.952;4.678;2022-08-23T06:34:46;23.80;99.90
24035;DHT22;12242;50.952;4.678;2022-08-23T06:37:14;24.10;99.90
24035;DHT22;12242;50.952;4.678;2022-08-23T06:39:41;24.30;99.90
24035;DHT22;12242;50.952;4.678;2022-08-23T06:42:14;24.50;99.90
24035;DHT22;12242;50.952;4.678;2022-08-23T06:45:02;24.70;99.90
24035;DHT22;12242;50.952;4.678;2022-08-23T06:47:30;24.90;99.90
24035;DHT22;12242;50.952;4.678;2022-08-23T06:49:58;25.10;99.90
24035;DHT22;12242;50.952;4.678;2022-08-23T06:52:28;25.10;99.90
24035;DHT22;12242;50.952;4.678;2022-08-23T06:54:56;25.10;99.90
24035;DHT22;12242;50.952;4.678;2022-08-23T06:57:26;25.30;99.90
24035;DHT22;12242;50.952;4.678;2022-08-23T06:59:54;25.40;99.90
24035;DHT22;12242;50.952;4.678;2022-08-23T07:02:23;25.60;99.90
24035;DHT22;12242;50.952;4.678;2022-08-23T07:04:51;25.60;99.90
24035;DHT22;12242;50.952;4.678;2022-08-23T07:07:21;25.90;99.90
24035;DHT22;12242;50.952;4.678;2022-08-23T07:09:49;26.10;99.90
24035;DHT22;12242;50.952;4.678;2022-08-23T07:12:18;26.20;99.90
24035;DHT22;12242;50.952;4.678;2022-08-23T07:14:47;26.30;99.90
24035;DHT22;12242;50.952;4.678;2022-08-23T07:17:15;26.30;99.90
24035;DHT22;12242;50.952;4.678;2022-08-23T07:19:45;26.70;99.90
24035;DHT22;12242;50.952;4.678;2022-08-23T07:22:13;27.00;99.90
24035;DHT22;12242;50.952;4.678;2022-08-23T07:24:41;27.20;98.40
24035;DHT22;12242;50.952;4.678;2022-08-23T07:27:09;27.60;98.30
24035;DHT22;12242;50.952;4.678;2022-08-23T07:29:37;27.80;97.30
24035;DHT22;12242;50.952;4.678;2022-08-23T07:32:08;28.10;96.90
24035;DHT22;12242;50.952;4.678;2022-08-23T07:34:36;28.40;96.10
24035;DHT22;12242;50.952;4.678;2022-08-23T07:37:06;28.70;94.80
24035;DHT22;12242;50.952;4.678;2022-08-23T07:39:42;29.00;94.30
24035;DHT22;12242;50.952;4.678;2022-08-23T07:42:11;29.00;94.00
24035;DHT22;12242;50.952;4.678;2022-08-23T07:44:51;29.50;93.50
24035;DHT22;12242;50.952;4.678;2022-08-23T07:47:20;29.90;93.00
24035;DHT22;12242;50.952;4.678;2022-08-23T07:49:48;30.20;92.50
24035;DHT22;12242;50.952;4.678;2022-08-23T07:52:16;30.50;92.20
24035;DHT22;12242;50.952;4.678;2022-08-23T07:54:44;30.90;91.40
24035;DHT22;12242;50.952;4.678;2022-08-23T07:57:17;31.30;90.40
24035;DHT22;12242;50.952;4.678;2022-08-23T07:59:48;31.70;90.30
24035;DHT22;12242;50.952;4.678;2022-08-23T08:02:15;32.40;88.10
24035;DHT22;12242;50.952;4.678;2022-08-23T08:04:43;32.90;86.30
24035;DHT22;12242;50.952;4.678;2022-08-23T08:07:11;33.40;84.50
24035;DHT22;12242;50.952;4.678;2022-08-23T08:09:47;33.60;83.60
24035;DHT22;12242;50.952;4.678;2022-08-23T08:12:15;33.50;81.60
24035;DHT22;12242;50.952;4.678;2022-08-23T08:14:44;33.80;82.50
24035;DHT22;12242;50.952;4.678;2022-08-23T08:17:15;34.00;79.50
24035;DHT22;12242;50.952;4.678;2022-08-23T08:19:44;33.80;78.70
24035;DHT22;12242;50.952;4.678;2022-08-23T08:22:13;34.20;79.40
24035;DHT22;12242;50.952;4.678;2022-08-23T08:24:40;34.20;80.00
24035;DHT22;12242;50.952;4.678;2022-08-23T08:27:11;34.50;78.30
24035;DHT22;12242;50.952;4.678;2022-08-23T08:29:38;34.90;78.60
24035;DHT22;12242;50.952;4.678;2022-08-23T08:32:06;34.80;78.40
24035;DHT22;12242;50.952;4.678;2022-08-23T08:34:40;34.90;78.70
24035;DHT22;12242;50.952;4.678;2022-08-23T08:37:08;34.80;77.00
24035;DHT22;12242;50.952;4.678;2022-08-23T08:39:38;35.30;75.50
24035;DHT22;12242;50.952;4.678;2022-08-23T08:45:15;35.00;75.80
24035;DHT22;12242;50.952;4.678;2022-08-23T08:48:01;35.10;74.20
24035;DHT22;12242;50.952;4.678;2022-08-23T08:50:41;35.70;74.30
24035;DHT22;12242;50.952;4.678;2022-08-23T08:53:30;35.70;72.30
24035;DHT22;12242;50.952;4.678;2022-08-23T08:56:06;35.70;71.10
24035;DHT22;12242;50.952;4.678;2022-08-23T08:58:53;35.50;72.20
24035;DHT22;12242;50.952;4.678;2022-08-23T09:01:23;35.40;70.30
24035;DHT22;12242;50.952;4.678;2022-08-23T09:03:55;35.30;71.60
24035;DHT22;12242;50.952;4.678;2022-08-23T09:06:57;35.50;71.90
24035;DHT22;12242;50.952;4.678;2022-08-23T09:15:55;36.20;69.30
24035;DHT22;12242;50.952;4.678;2022-08-23T09:18:25;36.90;69.40
24035;DHT22;12242;50.952;4.678;2022-08-23T09:20:53;36.60;68.10
24035;DHT22;12242;50.952;4.678;2022-08-23T09:23:26;36.90;67.50
24035;DHT22;12242;50.952;4.678;2022-08-23T09:25:56;36.90;66.30
24035;DHT22;12242;50.952;4.678;2022-08-23T09:28:33;36.60;66.50
24035;DHT22;12242;50.952;4.678;2022-08-23T09:31:02;36.40;67.40
24035;DHT22;12242;50.952;4.678;2022-08-23T09:33:40;36.20;67.40
24035;DHT22;12242;50.952;4.678;2022-08-23T09:36:20;36.10;67.40
24035;DHT22;12242;50.952;4.678;2022-08-23T09:38:54;35.90;66.50
24035;DHT22;12242;50.952;4.678;2022-08-23T09:41:25;35.40;66.60
24035;DHT22;12242;50.952;4.678;2022-08-23T09:43:54;35.30;68.40
24035;DHT22;12242;50.952;4.678;2022-08-23T09:46:27;35.20;68.30
24035;DHT22;12242;50.952;4.678;2022-08-23T09:48:59;35.40;67.80
24035;DHT22;12242;50.952;4.678;2022-08-23T09:51:44;35.50;68.90
24035;DHT22;12242;50.952;4.678;2022-08-23T09:54:31;35.50;68.00
24035;DHT22;12242;50.952;4.678;2022-08-23T09:57:05;35.40;67.80
24035;DHT22;12242;50.952;4.678;2022-08-23T09:59:42;35.00;67.60
24035;DHT22;12242;50.952;4.678;2022-08-23T10:04:54;35.70;67.40
24035;DHT22;12242;50.952;4.678;2022-08-23T10:07:34;35.70;66.70
24035;DHT22;12242;50.952;4.678;2022-08-23T10:10:35;35.60;68.30
24035;DHT22;12242;50.952;4.678;2022-08-23T10:13:04;34.60;68.40
24035;DHT22;12242;50.952;4.678;2022-08-23T10:16:01;33.90;68.90
24035;DHT22;12242;50.952;4.678;2022-08-23T10:19:09;33.40;71.00
24035;DHT22;12242;50.952;4.678;2022-08-23T10:22:00;33.50;70.80
24035;DHT22;12242;50.952;4.678;2022-08-23T10:30:20;33.10;73.50
24035;DHT22;12242;50.952;4.678;2022-08-23T10:32:55;33.00;73.10
24035;DHT22;12242;50.952;4.678;2022-08-23T10:35:42;33.10;74.20
24035;DHT22;12242;50.952;4.678;2022-08-23T10:38:35;33.20;72.20
24035;DHT22;12242;50.952;4.678;2022-08-23T10:44:32;34.10;71.70
24035;DHT22;12242;50.952;4.678;2022-08-23T10:49:54;35.10;71.30
24035;DHT22;12242;50.952;4.678;2022-08-23T10:52:27;35.20;70.90
24035;DHT22;12242;50.952;4.678;2022-08-23T10:55:04;35.80;70.60
24035;DHT22;12242;50.952;4.678;2022-08-23T10:57:46;36.00;67.00
24035;DHT22;12242;50.952;4.678;2022-08-23T11:00:21;35.50;66.70
24035;DHT22;12242;50.952;4.678;2022-08-23T11:06:25;34.40;70.70
24035;DHT22;12242;50.952;4.678;2022-08-23T11:09:03;35.30;71.40
24035;DHT22;12242;50.952;4.678;2022-08-23T11:14:00;35.10;69.70
24035;DHT22;12242;50.952;4.678;2022-08-23T11:16:33;35.20;70.40
24035;DHT22;12242;50.952;4.678;2022-08-23T11:19:02;35.20;68.60
24035;DHT22;12242;50.952;4.678;2022-08-23T11:21:46;35.20;68.90
24035;DHT22;12242;50.952;4.678;2022-08-23T11:32:04;35.10;69.50
24035;DHT22;12242;50.952;4.678;2022-08-23T11:34:50;35.40;68.40
24035;DHT22;12242;50.952;4.678;2022-08-23T11:42:50;35.40;67.20
24035;DHT22;12242;50.952;4.678;2022-08-23T11:45:40;35.60;67.40
24035;DHT22;12242;50.952;4.678;2022-08-23T12:05:38;33.30;71.20
24035;DHT22;12242;50.952;4.678;2022-08-23T12:11:02;33.70;72.00
24035;DHT22;12242;50.952;4.678;2022-08-23T12:13:45;34.00;68.80
24035;DHT22;12242;50.952;4.678;2022-08-23T12:18:52;34.70;69.60
24035;DHT22;12242;50.952;4.678;2022-08-23T12:21:47;34.50;67.10
24035;DHT22;12242;50.952;4.678;2022-08-23T12:24:28;34.40;69.90
24035;DHT22;12242;50.952;4.678;2022-08-23T12:32:52;33.20;72.10
24035;DHT22;12242;50.952;4.678;2022-08-23T12:38:28;32.40;73.80
24035;DHT22;12242;50.952;4.678;2022-08-23T12:41:28;32.40;75.50
24035;DHT22;12242;50.952;4.678;2022-08-23T12:44:07;33.20;75.00
24035;DHT22;12242;50.952;4.678;2022-08-23T12:46:39;34.10;74.80
24035;DHT22;12242;50.952;4.678;2022-08-23T12:49:09;34.30;70.70
24035;DHT22;12242;50.952;4.678;2022-08-23T12:51:40;33.70;70.60
24035;DHT22;12242;50.952;4.678;2022-08-23T12:54:17;33.20;71.50
24035;DHT22;12242;50.952;4.678;2022-08-23T12:56:51;33.10;72.10
24035;DHT22;12242;50.952;4.678;2022-08-23T12:59:35;33.40;71.50
24035;DHT22;12242;50.952;4.678;2022-08-23T13:02:05;33.80;73.10
24035;DHT22;12242;50.952;4.678;2022-08-23T13:04:39;33.80;70.80
24035;DHT22;12242;50.952;4.678;2022-08-23T13:07:11;33.80;72.00
24035;DHT22;12242;50.952;4.678;2022-08-23T13:09:41;34.10;69.30
24035;DHT22;12242;50.952;4.678;2022-08-23T13:12:19;34.40;67.80
24035;DHT22;12242;50.952;4.678;2022-08-23T13:14:51;34.70;69.40
24035;DHT22;12242;50.952;4.678;2022-08-23T13:20:18;35.10;67.80
24035;DHT22;12242;50.952;4.678;2022-08-23T13:23:03;34.70;67.40
24035;DHT22;12242;50.952;4.678;2022-08-23T13:25:39;34.80;68.10
24035;DHT22;12242;50.952;4.678;2022-08-23T13:28:25;34.80;67.20
24035;DHT22;12242;50.952;4.678;2022-08-23T13:31:06;34.90;68.10
24035;DHT22;12242;50.952;4.678;2022-08-23T13:33:34;34.90;68.50
24035;DHT22;12242;50.952;4.678;2022-08-23T13:36:07;34.70;67.70
24035;DHT22;12242;50.952;4.678;2022-08-23T13:38:40;34.50;70.30
24035;DHT22;12242;50.952;4.678;2022-08-23T13:41:11;34.40;67.10
24035;DHT22;12242;50.952;4.678;2022-08-23T13:43:54;34.40;67.20
24035;DHT22;12242;50.952;4.678;2022-08-23T13:46:27;34.20;66.40
24035;DHT22;12242;50.952;4.678;2022-08-23T13:49:18;34.10;71.20
24035;DHT22;12242;50.952;4.678;2022-08-23T13:52:08;34.20;69.40
24035;DHT22;12242;50.952;4.678;2022-08-23T13:54:57;34.30;69.90
24035;DHT22;12242;50.952;4.678;2022-08-23T13:57:24;34.00;67.40
24035;DHT22;12242;50.952;4.678;2022-08-23T13:59:56;33.70;67.40
24035;DHT22;12242;50.952;4.678;2022-08-23T14:02:26;33.60;68.90
24035;DHT22;12242;50.952;4.678;2022-08-23T14:04:57;33.70;69.60
24035;DHT22;12242;50.952;4.678;2022-08-23T14:07:25;33.70;68.60
24035;DHT22;12242;50.952;4.678;2022-08-23T14:09:57;33.70;71.70
24035;DHT22;12242;50.952;4.678;2022-08-23T14:12:29;33.70;68.20
24035;DHT22;12242;50.952;4.678;2022-08-23T14:14:57;33.80;70.50
24035;DHT22;12242;50.952;4.678;2022-08-23T14:17:25;33.90;69.20
24035;DHT22;12242;50.952;4.678;2022-08-23T14:19:57;33.90;70.10
24035;DHT22;12242;50.952;4.678;2022-08-23T14:22:45;34.00;68.80
24035;DHT22;12242;50.952;4.678;2022-08-23T14:25:13;33.60;68.30
24035;DHT22;12242;50.952;4.678;2022-08-23T14:27:44;33.30;69.80
24035;DHT22;12242;50.952;4.678;2022-08-23T14:30:26;33.30;70.60
24035;DHT22;12242;50.952;4.678;2022-08-23T14:32:55;33.40;69.40
24035;DHT22;12242;50.952;4.678;2022-08-23T14:35:23;33.30;70.70
24035;DHT22;12242;50.952;4.678;2022-08-23T14:37:57;33.40;69.90
24035;DHT22;12242;50.952;4.678;2022-08-23T14:40:30;33.40;70.40
24035;DHT22;12242;50.952;4.678;2022-08-23T14:42:57;33.50;69.80
24035;DHT22;12242;50.952;4.678;2022-08-23T14:45:25;33.40;69.30
24035;DHT22;12242;50.952;4.678;2022-08-23T14:47:53;33.20;70.60
24035;DHT22;12242;50.952;4.678;2022-08-23T14:50:20;32.80;69.80
24035;DHT22;12242;50.952;4.678;2022-08-23T14:52:48;32.50;70.60
24035;DHT22;12242;50.952;4.678;2022-08-23T14:55:16;32.50;70.40
24035;DHT22;12242;50.952;4.678;2022-08-23T14:57:43;32.40;70.40
24035;DHT22;12242;50.952;4.678;2022-08-23T15:00:11;32.40;71.10
24035;DHT22;12242;50.952;4.678;2022-08-23T15:02:43;32.50;71.30
24035;DHT22;12242;50.952;4.678;2022-08-23T15:05:12;32.60;71.90
24035;DHT22;12242;50.952;4.678;2022-08-23T15:07:42;32.50;70.00
24035;DHT22;12242;50.952;4.678;2022-08-23T15:10:12;32.40;69.50
24035;DHT22;12242;50.952;4.678;2022-08-23T15:13:02;32.30;71.70
24035;DHT22;12242;50.952;4.678;2022-08-23T15:15:48;32.30;71.60
24035;DHT22;12242;50.952;4.678;2022-08-23T15:18:16;32.30;70.80
24035;DHT22;12242;50.952;4.678;2022-08-23T15:20:45;32.30;69.20
24035;DHT22;12242;50.952;4.678;2022-08-23T15:23:13;32.10;70.10
24035;DHT22;12242;50.952;4.678;2022-08-23T15:25:41;32.00;70.20
24035;DHT22;12242;50.952;4.678;2022-08-23T15:28:13;31.80;71.50
24035;DHT22;12242;50.952;4.678;2022-08-23T15:30:42;31.60;72.10
24035;DHT22;12242;50.952;4.678;2022-08-23T15:33:17;31.50;72.70
24035;DHT22;12242;50.952;4.678;2022-08-23T15:35:54;31.40;72.70
24035;DHT22;12242;50.952;4.678;2022-08-23T15:38:28;31.20;73.70
24035;DHT22;12242;50.952;4.678;2022-08-23T15:40:56;31.10;73.70
24035;DHT22;12242;50.952;4.678;2022-08-23T15:43:24;31.10;74.30
24035;DHT22;12242;50.952;4.678;2022-08-23T15:46:18;31.00;74.60
24035;DHT22;12242;50.952;4.678;2022-08-23T15:48:53;31.10;73.70
24035;DHT22;12242;50.952;4.678;2022-08-23T15:51:22;31.00;73.40
24035;DHT22;12242;50.952;4.678;2022-08-23T15:53:50;31.00;73.70
24035;DHT22;12242;50.952;4.678;2022-08-23T15:56:21;30.90;72.30
24035;DHT22;12242;50.952;4.678;2022-08-23T15:58:52;30.90;73.10
24035;DHT22;12242;50.952;4.678;2022-08-23T16:01:20;30.90;73.10
24035;DHT22;12242;50.952;4.678;2022-08-23T16:03:51;30.80;74.50
24035;DHT22;12242;50.952;4.678;2022-08-23T16:06:19;30.60;74.00
24035;DHT22;12242;50.952;4.678;2022-08-23T16:08:49;30.60;74.30
24035;DHT22;12242;50.952;4.678;2022-08-23T16:11:20;30.50;75.10
24035;DHT22;12242;50.952;4.678;2022-08-23T16:13:48;30.50;75.20
24035;DHT22;12242;50.952;4.678;2022-08-23T16:16:27;30.40;75.20
24035;DHT22;12242;50.952;4.678;2022-08-23T16:18:57;30.40;74.90
24035;DHT22;12242;50.952;4.678;2022-08-23T16:21:29;30.50;76.50
24035;DHT22;12242;50.952;4.678;2022-08-23T16:23:59;30.40;75.00
24035;DHT22;12242;50.952;4.678;2022-08-23T16:26:30;30.40;75.10
24035;DHT22;12242;50.952;4.678;2022-08-23T16:29:06;30.40;75.90
24035;DHT22;12242;50.952;4.678;2022-08-23T16:31:34;30.50;75.70
24035;DHT22;12242;50.952;4.678;2022-08-23T16:34:08;30.50;75.90
24035;DHT22;12242;50.952;4.678;2022-08-23T16:36:39;30.50;76.70
24035;DHT22;12242;50.952;4.678;2022-08-23T16:39:07;30.60;76.60
24035;DHT22;12242;50.952;4.678;2022-08-23T16:41:35;30.60;75.00
24035;DHT22;12242;50.952;4.678;2022-08-23T16:44:02;30.50;74.10
24035;DHT22;12242;50.952;4.678;2022-08-23T16:46:33;30.40;75.50
24035;DHT22;12242;50.952;4.678;2022-08-23T16:49:01;30.40;75.30
24035;DHT22;12242;50.952;4.678;2022-08-23T16:51:29;30.40;77.20
24035;DHT22;12242;50.952;4.678;2022-08-23T16:53:57;30.50;76.90
24035;DHT22;12242;50.952;4.678;2022-08-23T16:56:32;30.60;75.80
24035;DHT22;12242;50.952;4.678;2022-08-23T16:59:01;30.60;76.00
24035;DHT22;12242;50.952;4.678;2022-08-23T17:01:54;30.60;75.40
24035;DHT22;12242;50.952;4.678;2022-08-23T17:04:26;30.60;75.90
24035;DHT22;12242;50.952;4.678;2022-08-23T17:06:59;30.50;74.40
24035;DHT22;12242;50.952;4.678;2022-08-23T17:09:29;30.50;75.90
24035;DHT22;12242;50.952;4.678;2022-08-23T17:11:57;30.40;76.10
24035;DHT22;12242;50.952;4.678;2022-08-23T17:14:25;30.30;76.20
24035;DHT22;12242;50.952;4.678;2022-08-23T17:16:52;30.30;79.20
24035;DHT22;12242;50.952;4.678;2022-08-23T17:19:21;30.20;75.40
24035;DHT22;12242;50.952;4.678;2022-08-23T17:21:49;30.20;76.90
24035;DHT22;12242;50.952;4.678;2022-08-23T17:24:16;30.20;75.60